Time;durP1;ratioP1;P1;durP2;ratioP2;P2;SDS_P1;SDS_P2;PMS_P1;PMS_P2;Temp;Humidity;BMP_temperature;BMP_pressure;BME280_temperature;BME280_humidity;BME280_pressure;Samples;Min_cycle;Max_cycle;Signal;HPM_P1;HPM_P2
2021/12/12 00:01:26;;;;;;;19.67;6.47;;;;;5.20;101578.00;;;;10499829;28;20209;-80
2021/12/12 00:06:33;;;;;;;18.73;7.07;;;;;5.20;101578.00;;;;10487812;28;20203;-80
2021/12/12 00:11:36;;;;;;;32.00;7.13;;;;;5.30;101562.00;;;;10520081;28;20246;-80
2021/12/12 00:16:40;;;;;;;18.57;6.67;;;;;5.30;101552.00;;;;10493556;28;20674;-80
2021/12/12 00:21:45;;;;;;;19.67;6.43;;;;;5.30;101548.00;;;;10503728;28;20691;-80
2021/12/12 00:26:49;;;;;;;15.90;6.00;;;;;5.30;101544.00;;;;10471924;28;20315;-80
2021/12/12 00:31:57;;;;;;;23.07;5.90;;;;;5.30;101544.00;;;;10471776;28;20263;-80
2021/12/12 00:36:59;;;;;;;25.97;7.80;;;;;5.30;101535.00;;;;10452697;28;20200;-80
2021/12/12 00:42:08;;;;;;;18.47;7.20;;;;;5.30;101527.00;;;;10509519;28;20196;-80
2021/12/12 00:47:11;;;;;;;15.43;6.37;;;;;5.30;101533.00;;;;10458845;28;20219;-79
2021/12/12 00:52:16;;;;;;;17.53;6.20;;;;;5.30;101525.00;;;;10458723;28;20189;-80
2021/12/12 00:57:20;;;;;;;15.97;6.03;;;;;5.40;101535.00;;;;10448737;28;20255;-79
2021/12/12 01:02:26;;;;;;;26.07;6.27;;;;;5.40;101532.00;;;;10467413;28;20214;-80
2021/12/12 01:07:33;;;;;;;17.87;5.70;;;;;5.40;101529.00;;;;10499107;28;20197;-80
2021/12/12 01:12:37;;;;;;;15.53;5.10;;;;;5.50;101518.00;;;;10467459;28;20235;-80
2021/12/12 01:17:43;;;;;;;13.50;5.33;;;;;5.50;101528.00;;;;10482998;28;20200;-80
2021/12/12 01:22:45;;;;;;;22.27;5.97;;;;;5.50;101521.00;;;;10435602;28;20657;-80
2021/12/12 01:27:48;;;;;;;12.83;4.83;;;;;5.50;101520.00;;;;10482567;28;20189;-80
2021/12/12 01:32:52;;;;;;;15.83;5.53;;;;;5.60;101524.00;;;;10509068;28;20251;-80
2021/12/12 01:43:22;;;;;;;12.67;4.73;;;;;5.60;101523.00;;;;10476866;28;20208;-79
2021/12/12 01:48:31;;;;;;;18.97;4.73;;;;;5.60;101528.00;;;;10482912;28;20190;-79
2021/12/12 01:53:37;;;;;;;17.00;4.63;;;;;5.70;101517.00;;;;10490738;28;20193;-79
2021/12/12 01:58:42;;;;;;;19.00;4.23;;;;;5.70;101511.00;;;;10473698;28;20270;-79
2021/12/12 02:03:52;;;;;;;25.37;5.47;;;;;5.70;101513.00;;;;10490714;28;20197;-79
2021/12/12 02:08:55;;;;;;;15.53;4.03;;;;;5.70;101521.00;;;;10507003;28;20204;-80
2021/12/12 02:14:08;;;;;;;15.33;4.20;;;;;5.70;101519.00;;;;10474369;28;20235;-80
2021/12/12 02:19:13;;;;;;;15.23;4.33;;;;;5.80;101515.00;;;;10490799;28;20209;-80
2021/12/12 02:40:07;;;;;;;14.50;4.50;;;;;5.90;101502.00;;;;10472571;28;20270;-79
2021/12/12 02:45:11;;;;;;;11.27;4.10;;;;;5.90;101494.00;;;;10495090;28;20269;-79
2021/12/12 02:50:20;;;;;;;8.23;3.70;;;;;5.90;101497.00;;;;10474331;28;20190;-79
2021/12/12 02:55:26;;;;;;;12.47;3.47;;;;;5.90;101490.00;;;;10470668;28;20193;-79
2021/12/12 03:00:33;;;;;;;8.77;3.93;;;;;5.90;101509.00;;;;10521021;28;20228;-79
2021/12/12 03:05:41;;;;;;;17.00;4.40;;;;;5.90;101498.00;;;;10494811;28;20204;-79
2021/12/12 03:10:48;;;;;;;8.50;4.00;;;;;5.90;101506.00;;;;10463413;28;20195;-79
2021/12/12 03:15:51;;;;;;;10.13;3.53;;;;;5.90;101503.00;;;;10504056;28;20235;-79
2021/12/12 03:20:58;;;;;;;12.60;4.50;;;;;6.00;101505.00;;;;10457667;28;20296;-79
2021/12/12 03:26:06;;;;;;;10.80;4.20;;;;;6.00;101511.00;;;;10493572;28;20247;-79
2021/12/12 03:31:12;;;;;;;10.23;4.00;;;;;6.10;101521.00;;;;10487199;28;20246;-79
2021/12/12 03:36:17;;;;;;;9.30;3.90;;;;;6.10;101521.00;;;;10470629;28;20308;-79
2021/12/12 03:41:23;;;;;;;8.03;3.77;;;;;6.10;101515.00;;;;10473466;28;20254;-80
2021/12/12 03:46:25;;;;;;;9.33;3.43;;;;;6.20;101515.00;;;;10487219;28;20246;-79
2021/12/12 03:51:29;;;;;;;10.60;3.60;;;;;6.20;101502.00;;;;10433201;28;20186;-80
2021/12/12 03:56:31;;;;;;;9.57;3.57;;;;;6.20;101499.00;;;;10459628;28;20193;-80
2021/12/12 04:01:43;;;;;;;5.53;3.67;;;;;6.30;101495.00;;;;10516132;28;20787;-80
2021/12/12 04:06:48;;;;;;;6.63;3.57;;;;;6.30;101502.00;;;;10462241;28;20189;-80
2021/12/12 04:11:54;;;;;;;7.80;3.40;;;;;6.30;101507.00;;;;10445946;28;20185;-80
2021/12/12 04:17:03;;;;;;;4.80;3.50;;;;;6.40;101502.00;;;;10463102;28;20196;-80
2021/12/12 04:22:05;;;;;;;6.20;3.27;;;;;6.40;101496.00;;;;10525783;28;20204;-80
2021/12/12 04:27:08;;;;;;;7.83;3.70;;;;;6.40;101493.00;;;;10461118;28;20194;-79
2021/12/12 04:32:34;;;;;;;6.30;3.83;;;;;6.40;101494.00;;;;10461568;28;20210;-79
2021/12/12 04:37:37;;;;;;;6.40;4.03;;;;;6.50;101500.00;;;;10470089;28;20246;-79
2021/12/12 04:42:40;;;;;;;5.97;3.70;;;;;6.50;101497.00;;;;10486140;28;20572;-79
2021/12/12 04:53:41;;;;;;;5.63;3.70;;;;;6.50;101509.00;;;;10448302;28;20194;-79
2021/12/12 04:59:00;;;;;;;5.73;4.33;;;;;6.50;101504.00;;;;10469936;28;20294;-79
2021/12/12 05:04:16;;;;;;;4.70;3.57;;;;;6.50;101511.00;;;;10472813;28;20196;-79
2021/12/12 05:09:23;;;;;;;5.40;3.73;;;;;6.50;101513.00;;;;10489189;28;20184;-79
2021/12/12 05:14:28;;;;;;;5.13;3.93;;;;;6.60;101521.00;;;;10475715;28;20214;-79
2021/12/12 05:19:32;;;;;;;3.83;3.43;;;;;6.60;101522.00;;;;10480180;28;20270;-79
2021/12/12 05:24:36;;;;;;;4.27;3.40;;;;;6.70;101529.00;;;;10505474;28;20217;-79
2021/12/12 05:29:55;;;;;;;5.23;3.73;;;;;6.70;101510.00;;;;10468120;28;20193;-79
2021/12/12 05:34:59;;;;;;;4.70;3.57;;;;;6.70;101528.00;;;;10502945;28;20266;-79
2021/12/12 05:40:06;;;;;;;6.27;3.93;;;;;6.70;101527.00;;;;10507225;28;20213;-79
2021/12/12 05:45:09;;;;;;;4.27;3.43;;;;;6.70;101534.00;;;;10491648;28;20744;-79
2021/12/12 05:50:13;;;;;;;5.00;3.37;;;;;6.70;101543.00;;;;10490730;28;20189;-79
2021/12/12 05:55:16;;;;;;;5.97;3.90;;;;;6.80;101558.00;;;;10489922;28;20235;-79
2021/12/12 06:00:18;;;;;;;4.87;3.30;;;;;6.80;101562.00;;;;10461212;28;20259;-79
2021/12/12 06:05:20;;;;;;;4.70;3.90;;;;;6.90;101569.00;;;;10473264;28;20200;-79
2021/12/12 06:10:23;;;;;;;5.43;3.87;;;;;6.90;101567.00;;;;10455450;28;20238;-79
2021/12/12 06:15:28;;;;;;;7.67;4.47;;;;;6.90;101572.00;;;;10477077;28;20193;-79
2021/12/12 06:20:31;;;;;;;4.63;4.13;;;;;7.00;101566.00;;;;10502515;28;20216;-80
2021/12/12 06:25:33;;;;;;;5.33;4.10;;;;;7.00;101568.00;;;;10463788;28;20246;-79
2021/12/12 06:30:35;;;;;;;6.20;4.60;;;;;7.00;101559.00;;;;10474743;28;20653;-79
2021/12/12 06:35:39;;;;;;;6.43;5.17;;;;;7.10;101573.00;;;;10490071;28;20312;-79
2021/12/12 06:40:43;;;;;;;7.97;4.83;;;;;7.10;101579.00;;;;10490019;28;20209;-79
2021/12/12 06:45:46;;;;;;;9.53;6.23;;;;;7.10;101580.00;;;;10473612;28;20189;-79
2021/12/12 06:50:54;;;;;;;10.03;6.03;;;;;7.20;101585.00;;;;10505852;28;20193;-79
2021/12/12 06:55:57;;;;;;;12.00;5.97;;;;;7.20;101585.00;;;;10462899;28;20197;-79
2021/12/12 07:01:11;;;;;;;10.27;6.27;;;;;7.20;101577.00;;;;10506144;28;20216;-79
2021/12/12 07:06:17;;;;;;;13.30;7.70;;;;;7.30;101589.00;;;;10472253;28;20649;-79
2021/12/12 07:11:22;;;;;;;11.93;6.80;;;;;7.30;101596.00;;;;10476600;28;20201;-79
2021/12/12 07:16:24;;;;;;;14.87;7.67;;;;;7.40;101594.00;;;;10463154;28;20235;-79
2021/12/12 07:21:27;;;;;;;13.70;7.50;;;;;7.40;101598.00;;;;10481035;28;20240;-79
2021/12/12 07:26:29;;;;;;;10.63;7.07;;;;;7.40;101606.00;;;;10479237;28;20327;-79
2021/12/12 07:31:34;;;;;;;15.00;7.37;;;;;7.40;101602.00;;;;10480166;28;20269;-79
2021/12/12 07:36:45;;;;;;;12.97;7.30;;;;;7.50;101593.00;;;;10462559;28;20268;-79
2021/12/12 07:41:49;;;;;;;15.93;8.23;;;;;7.50;101601.00;;;;10490777;28;20311;-79
2021/12/12 07:46:54;;;;;;;14.80;7.77;;;;;7.50;101607.00;;;;10476015;28;20667;-80
2021/12/12 07:51:57;;;;;;;15.27;7.50;;;;;7.50;101618.00;;;;10511568;28;20189;-80
2021/12/12 07:56:59;;;;;;;15.87;8.20;;;;;7.50;101625.00;;;;10488198;28;20208;-79
2021/12/12 08:02:02;;;;;;;17.43;8.27;;;;;7.50;101631.00;;;;10504605;28;20235;-80
2021/12/12 08:07:09;;;;;;;18.67;8.63;;;;;7.50;101636.00;;;;10506644;28;20195;-80
2021/12/12 08:12:15;;;;;;;13.97;8.57;;;;;7.60;101632.00;;;;10446714;28;20678;-79
2021/12/12 08:17:20;;;;;;;17.80;7.97;;;;;7.60;101637.00;;;;10475113;28;20617;-78
2021/12/12 08:22:25;;;;;;;19.50;9.87;;;;;7.70;101634.00;;;;10469440;28;20270;-78
2021/12/12 08:27:28;;;;;;;19.60;9.50;;;;;7.80;101646.00;;;;10473529;28;20193;-78
2021/12/12 08:32:30;;;;;;;14.83;9.17;;;;;7.90;101639.00;;;;10494100;28;20215;-78
2021/12/12 08:37:44;;;;;;;19.93;10.40;;;;;8.00;101644.00;;;;10548470;28;20207;-78
2021/12/12 08:42:48;;;;;;;16.63;9.17;;;;;8.10;101652.00;;;;10509654;28;20230;-79
2021/12/12 08:47:51;;;;;;;17.70;10.23;;;;;8.20;101651.00;;;;10490470;28;20192;-78
2021/12/12 08:52:53;;;;;;;19.03;9.70;;;;;8.20;101652.00;;;;10510532;28;20192;-78
2021/12/12 08:58:03;;;;;;;17.77;10.67;;;;;8.20;101660.00;;;;10482630;28;20201;-78
2021/12/12 09:03:10;;;;;;;13.23;8.53;;;;;8.20;101659.00;;;;10431803;28;20232;-78
2021/12/12 09:08:23;;;;;;;13.80;8.47;;;;;8.20;101670.00;;;;10435335;28;20247;-78
2021/12/12 09:13:35;;;;;;;16.00;9.60;;;;;8.30;101669.00;;;;10429755;28;20194;-78
2021/12/12 09:18:47;;;;;;;18.87;10.87;;;;;8.40;101680.00;;;;10439591;28;20198;-79
2021/12/12 09:24:13;;;;;;;22.30;10.97;;;;;8.60;101682.00;;;;10448519;28;20189;-78
2021/12/12 09:29:20;;;;;;;18.77;10.00;;;;;8.80;101689.00;;;;10420935;28;20661;-78
2021/12/12 09:34:48;;;;;;;16.87;10.23;;;;;9.00;101688.00;;;;10410511;28;20256;-78
2021/12/12 09:40:18;;;;;;;14.07;8.60;;;;;9.10;101691.00;;;;10481662;28;20213;-78
2021/12/12 09:46:05;;;;;;;13.87;8.73;;;;;9.20;101695.00;;;;10426297;28;20197;-78
2021/12/12 09:51:19;;;;;;;14.17;9.00;;;;;9.20;101705.00;;;;10438259;28;20207;-78
2021/12/12 09:56:21;;;;;;;13.80;8.40;;;;;9.20;101707.00;;;;10462300;28;20224;-78
2021/12/12 10:01:30;;;;;;;13.30;8.10;;;;;9.20;101711.00;;;;10470614;28;20220;-78
2021/12/12 10:06:49;;;;;;;12.10;7.47;;;;;9.20;101715.00;;;;10490998;28;20197;-79
2021/12/12 10:12:20;;;;;;;13.97;9.17;;;;;9.20;101703.00;;;;10484859;28;20199;-78
2021/12/12 10:17:40;;;;;;;13.73;9.67;;;;;9.30;101703.00;;;;10470903;28;20204;-77
2021/12/12 10:23:06;;;;;;;15.73;9.30;;;;;9.40;101693.00;;;;10487994;28;20200;-77
2021/12/12 10:28:17;;;;;;;17.20;9.10;;;;;9.30;101705.00;;;;10511100;28;20181;-78
2021/12/12 10:33:34;;;;;;;16.57;9.87;;;;;9.30;101706.00;;;;10522823;28;20213;-78
2021/12/12 10:39:02;;;;;;;21.73;14.73;;;;;9.30;101702.00;;;;10505936;28;20230;-77
2021/12/12 10:44:25;;;;;;;16.53;10.00;;;;;9.30;101702.00;;;;10471811;28;20241;-78
2021/12/12 10:49:27;;;;;;;16.50;10.93;;;;;9.40;101718.00;;;;10472002;28;20212;-79
2021/12/12 10:54:41;;;;;;;16.57;11.83;;;;;9.40;101711.00;;;;10504576;28;20284;-78
2021/12/12 10:59:48;;;;;;;18.30;13.27;;;;;9.40;101713.00;;;;10470497;28;20279;-78
2021/12/12 11:05:08;;;;;;;21.33;14.10;;;;;9.40;101716.00;;;;10466514;28;20228;-78
2021/12/12 11:10:28;;;;;;;21.10;13.77;;;;;9.50;101714.00;;;;10488408;28;20242;-78
2021/12/12 11:15:51;;;;;;;18.63;11.90;;;;;9.50;101714.00;;;;10505749;28;20189;-78
2021/12/12 11:20:59;;;;;;;17.27;11.07;;;;;9.60;101711.00;;;;10488385;28;20209;-75
2021/12/12 11:26:13;;;;;;;20.07;13.63;;;;;9.80;101707.00;;;;10488613;28;20193;-78
2021/12/12 11:31:31;;;;;;;19.87;11.93;;;;;10.00;101697.00;;;;10504368;28;20246;-78
2021/12/12 11:36:41;;;;;;;25.70;16.03;;;;;10.00;101716.00;;;;10487907;28;20307;-78
2021/12/12 11:41:55;;;;;;;17.63;11.07;;;;;10.10;101719.00;;;;10449209;28;20209;-78
2021/12/12 11:47:08;;;;;;;14.73;11.80;;;;;10.00;101726.00;;;;10475980;28;20188;-78
2021/12/12 11:52:19;;;;;;;26.47;17.57;;;;;9.90;101733.00;;;;10469748;28;20614;-78
2021/12/12 11:57:28;;;;;;;13.67;9.93;;;;;9.80;101728.00;;;;10470185;28;20188;-78
2021/12/12 12:02:41;;;;;;;14.93;10.53;;;;;9.60;101728.00;;;;10491729;28;20552;-78
2021/12/12 12:08:12;;;;;;;15.43;10.40;;;;;9.50;101734.00;;;;10512819;28;20197;-78
2021/12/12 12:13:45;;;;;;;11.90;8.50;;;;;9.50;101748.00;;;;10512103;28;20185;-77
2021/12/12 12:19:15;;;;;;;9.10;7.27;;;;;9.50;101736.00;;;;10512800;28;20185;-79
2021/12/12 12:24:25;;;;;;;9.93;7.77;;;;;9.60;101740.00;;;;10513001;28;20193;-78
2021/12/12 12:29:27;;;;;;;10.17;8.17;;;;;9.70;101755.00;;;;10496369;28;20205;-78
2021/12/12 12:34:57;;;;;;;11.50;9.07;;;;;9.80;101752.00;;;;10511894;28;20308;-78
2021/12/12 12:40:36;;;;;;;13.10;10.23;;;;;10.20;101744.00;;;;10439463;28;20324;-78
2021/12/12 12:46:13;;;;;;;11.73;9.13;;;;;10.40;101746.00;;;;10510807;28;20192;-78
2021/12/12 12:51:35;;;;;;;11.97;9.00;;;;;10.50;101739.00;;;;10494360;28;20185;-78
2021/12/12 12:56:55;;;;;;;11.63;8.27;;;;;10.50;101746.00;;;;10492367;28;20250;-78
2021/12/12 13:02:04;;;;;;;9.90;8.47;;;;;10.40;101750.00;;;;10490334;28;20216;-78
2021/12/12 13:07:25;;;;;;;12.83;8.47;;;;;10.40;101752.00;;;;10518611;28;20192;-78
2021/12/12 13:13:08;;;;;;;14.47;9.57;;;;;10.30;101744.00;;;;10464131;28;20208;-78
2021/12/12 13:18:17;;;;;;;13.87;9.63;;;;;10.30;101744.00;;;;10428998;28;20258;-78
2021/12/12 13:23:46;;;;;;;12.90;9.77;;;;;10.30;101740.00;;;;10492884;28;20201;-78
2021/12/12 13:29:29;;;;;;;11.47;8.97;;;;;10.40;101738.00;;;;10517721;28;20614;-78
2021/12/12 13:34:36;;;;;;;16.33;11.00;;;;;10.30;101743.00;;;;10540724;28;20334;-77
2021/12/12 13:40:07;;;;;;;12.73;9.57;;;;;10.30;101741.00;;;;10517846;28;20262;-77
2021/12/12 13:45:20;;;;;;;12.53;9.63;;;;;10.20;101750.00;;;;10508574;28;20215;-79
2021/12/12 13:50:39;;;;;;;12.47;9.37;;;;;10.40;101754.00;;;;10507044;28;20201;-78
2021/12/12 13:55:59;;;;;;;13.37;10.17;;;;;10.50;101759.00;;;;10523297;28;20197;-78
2021/12/12 14:01:12;;;;;;;12.53;9.73;;;;;10.70;101765.00;;;;10449240;28;21000;-78
2021/12/12 14:06:16;;;;;;;15.00;9.57;;;;;10.70;101766.00;;;;10446803;28;20551;-78
2021/12/12 14:11:26;;;;;;;10.97;9.83;;;;;10.80;101770.00;;;;10507457;28;20235;-78
2021/12/12 14:16:40;;;;;;;11.87;9.47;;;;;10.80;101788.00;;;;10514257;28;20235;-78
2021/12/12 14:21:44;;;;;;;13.50;11.10;;;;;10.70;101793.00;;;;10489837;28;20212;-78
2021/12/12 14:26:50;;;;;;;13.57;9.77;;;;;10.60;101794.00;;;;10494774;28;20192;-78
2021/12/12 14:32:01;;;;;;;14.43;11.27;;;;;10.50;101796.00;;;;10510612;28;20200;-78
2021/12/12 14:37:11;;;;;;;19.40;13.27;;;;;10.50;101797.00;;;;10488261;28;20235;-78
2021/12/12 14:42:24;;;;;;;21.13;14.00;;;;;10.50;101800.00;;;;10497418;28;20235;-78
2021/12/12 14:47:35;;;;;;;34.17;25.63;;;;;10.50;101804.00;;;;10476529;28;20215;-78
2021/12/12 14:52:41;;;;;;;24.67;16.00;;;;;10.50;101823.00;;;;10463923;28;20208;-78
2021/12/12 14:57:48;;;;;;;26.87;18.13;;;;;10.50;101815.00;;;;10520432;28;20193;-78
2021/12/12 15:03:04;;;;;;;25.53;18.17;;;;;10.50;101819.00;;;;10481941;28;20596;-78
2021/12/12 15:08:38;;;;;;;26.83;18.47;;;;;10.40;101824.00;;;;10473870;28;20200;-78
2021/12/12 15:13:42;;;;;;;25.23;17.70;;;;;10.40;101828.00;;;;10440861;28;20258;-78
2021/12/12 15:18:50;;;;;;;24.40;18.10;;;;;10.30;101837.00;;;;10483145;28;20194;-79
2021/12/12 15:23:55;;;;;;;30.90;19.73;;;;;10.30;101833.00;;;;10447509;28;20220;-79
2021/12/12 15:29:01;;;;;;;27.87;19.70;;;;;10.30;101843.00;;;;10446544;28;20243;-78
2021/12/12 15:34:12;;;;;;;32.67;20.33;;;;;10.30;101842.00;;;;10441742;28;20576;-78
2021/12/12 15:39:18;;;;;;;26.70;19.77;;;;;10.30;101850.00;;;;10490347;28;20200;-79
2021/12/12 15:44:27;;;;;;;29.23;20.33;;;;;10.30;101854.00;;;;10487257;28;20239;-78
2021/12/12 15:49:33;;;;;;;33.10;21.57;;;;;10.20;101844.00;;;;10466327;28;20206;-79
2021/12/12 15:54:36;;;;;;;31.63;22.77;;;;;10.20;101842.00;;;;10481728;28;20200;-78
2021/12/12 15:59:53;;;;;;;31.63;21.17;;;;;10.20;101848.00;;;;10454096;28;20197;-78
2021/12/12 16:05:31;;;;;;;38.27;23.97;;;;;10.20;101846.00;;;;10514073;28;20250;-78
2021/12/12 16:10:41;;;;;;;34.77;23.40;;;;;10.10;101863.00;;;;10480255;28;20200;-77
2021/12/12 16:15:46;;;;;;;36.13;22.63;;;;;10.10;101858.00;;;;10502699;28;20542;-77
2021/12/12 16:20:50;;;;;;;40.87;24.23;;;;;10.10;101870.00;;;;10498865;28;20211;-78
2021/12/12 16:26:04;;;;;;;35.30;24.13;;;;;10.10;101869.00;;;;10500771;28;20208;-77
2021/12/12 16:31:10;;;;;;;41.77;23.43;;;;;10.10;101872.00;;;;10486910;28;20185;-77
2021/12/12 16:36:21;;;;;;;41.57;23.97;;;;;10.10;101876.00;;;;10517422;28;20442;-77
2021/12/12 16:41:24;;;;;;;37.60;23.70;;;;;9.90;101878.00;;;;10473376;28;20399;-78
2021/12/12 16:46:33;;;;;;;40.30;24.03;;;;;9.90;101879.00;;;;10513187;28;20196;-77
2021/12/12 16:51:42;;;;;;;39.00;23.80;;;;;9.90;101880.00;;;;10510041;28;20189;-78
2021/12/12 16:56:51;;;;;;;45.77;24.07;;;;;9.90;101887.00;;;;10517965;28;20253;-78
2021/12/12 17:01:54;;;;;;;38.57;24.00;;;;;10.00;101893.00;;;;10532219;28;20232;-77
2021/12/12 17:07:06;;;;;;;40.70;24.37;;;;;10.10;101896.00;;;;10502338;28;20193;-79
2021/12/12 17:12:51;;;;;;;44.37;26.80;;;;;10.20;101899.00;;;;10501403;28;20204;-78
2021/12/12 17:18:16;;;;;;;45.20;27.33;;;;;10.30;101903.00;;;;10422695;28;20291;-78
2021/12/12 17:23:23;;;;;;;37.20;24.10;;;;;10.30;101900.00;;;;10485402;28;20937;-79
2021/12/12 17:28:30;;;;;;;43.00;28.53;;;;;10.30;101915.00;;;;10485236;28;20254;-78
2021/12/12 17:33:41;;;;;;;39.53;25.63;;;;;10.30;101912.00;;;;10483516;28;20218;-78
2021/12/12 17:38:52;;;;;;;35.27;22.13;;;;;10.30;101909.00;;;;10487059;28;20208;-78
2021/12/12 17:44:17;;;;;;;41.07;23.33;;;;;10.30;101908.00;;;;10499755;28;20204;-78
2021/12/12 17:49:57;;;;;;;34.70;20.97;;;;;10.30;101916.00;;;;10483860;28;20185;-78
2021/12/12 17:55:19;;;;;;;33.30;19.77;;;;;10.30;101922.00;;;;10521510;28;20189;-78
2021/12/12 18:00:43;;;;;;;32.57;21.57;;;;;10.40;101928.00;;;;10497487;28;20668;-78
2021/12/12 18:05:51;;;;;;;32.17;19.33;;;;;10.40;101924.00;;;;10492797;28;20234;-78
2021/12/12 18:11:02;;;;;;;38.77;22.50;;;;;10.40;101933.00;;;;10481317;28;20193;-78
2021/12/12 18:16:14;;;;;;;33.53;21.27;;;;;10.40;101935.00;;;;10490801;28;20610;-78
2021/12/12 18:21:24;;;;;;;36.57;22.67;;;;;10.40;101943.00;;;;10516336;28;20266;-78
2021/12/12 18:26:41;;;;;;;35.90;22.67;;;;;10.40;101938.00;;;;10485464;28;20189;-77
2021/12/12 18:31:50;;;;;;;32.53;22.00;;;;;10.40;101938.00;;;;10489521;28;20189;-77
2021/12/12 18:36:57;;;;;;;31.10;20.77;;;;;10.40;101945.00;;;;10464915;28;20197;-77
2021/12/12 18:42:11;;;;;;;30.23;21.43;;;;;10.40;101940.00;;;;10515233;28;20209;-78
2021/12/12 18:47:18;;;;;;;33.67;22.37;;;;;10.50;101945.00;;;;10484118;28;20253;-78
2021/12/12 18:52:23;;;;;;;32.00;21.43;;;;;10.40;101959.00;;;;10485887;28;20778;-78
2021/12/12 18:57:31;;;;;;;32.63;22.07;;;;;10.40;101961.00;;;;10488496;28;20583;-78
2021/12/12 19:02:39;;;;;;;34.63;22.67;;;;;10.40;101971.00;;;;10488757;28;20227;-78
2021/12/12 19:07:41;;;;;;;29.53;21.10;;;;;10.40;101968.00;;;;10471975;28;20271;-79
2021/12/12 19:12:48;;;;;;;33.10;21.23;;;;;10.40;101973.00;;;;10504218;28;20827;-79
2021/12/12 19:17:59;;;;;;;31.90;21.10;;;;;10.50;101978.00;;;;10473260;28;20189;-78
2021/12/12 19:23:05;;;;;;;28.50;19.90;;;;;10.40;101977.00;;;;10470199;28;20663;-79
2021/12/12 19:28:08;;;;;;;28.20;20.33;;;;;10.40;101982.00;;;;10503045;28;20193;-78
2021/12/12 19:33:18;;;;;;;30.10;19.00;;;;;10.40;101985.00;;;;10495067;28;20197;-78
2021/12/12 19:38:28;;;;;;;30.17;19.87;;;;;10.40;101993.00;;;;10498696;28;20249;-79
2021/12/12 19:43:38;;;;;;;25.10;18.23;;;;;10.40;101991.00;;;;10524462;28;20270;-78
2021/12/12 19:48:43;;;;;;;29.67;19.40;;;;;10.40;101991.00;;;;10503791;28;20189;-79
2021/12/12 19:53:50;;;;;;;25.43;17.03;;;;;10.40;101995.00;;;;10461143;28;20205;-79
2021/12/12 19:58:54;;;;;;;25.43;16.43;;;;;10.40;101989.00;;;;10454003;28;20197;-78
2021/12/12 20:04:06;;;;;;;22.53;16.43;;;;;10.40;101985.00;;;;10519616;28;20217;-79
2021/12/12 20:09:25;;;;;;;22.80;16.00;;;;;10.30;101988.00;;;;10526383;28;20185;-78
2021/12/12 20:14:31;;;;;;;25.67;16.00;;;;;10.20;101994.00;;;;10505919;28;20199;-79
2021/12/12 20:19:38;;;;;;;25.23;15.23;;;;;10.20;101988.00;;;;10481467;28;20202;-78
2021/12/12 20:24:48;;;;;;;30.70;17.07;;;;;10.20;101990.00;;;;10491731;28;20212;-78
2021/12/12 20:29:57;;;;;;;25.20;15.63;;;;;10.20;101991.00;;;;10478476;28;20219;-78
2021/12/12 20:35:04;;;;;;;24.83;15.20;;;;;10.20;101995.00;;;;10510205;28;20205;-79
2021/12/12 20:40:13;;;;;;;22.03;14.77;;;;;10.20;101997.00;;;;10484439;28;20190;-79
2021/12/12 20:45:23;;;;;;;20.10;13.53;;;;;10.20;102000.00;;;;10488121;28;20220;-79
2021/12/12 20:50:39;;;;;;;21.13;13.30;;;;;10.20;102007.00;;;;10458613;28;20186;-79
2021/12/12 20:56:03;;;;;;;22.57;13.67;;;;;10.20;102011.00;;;;10506668;28;20197;-79
2021/12/12 21:01:09;;;;;;;22.90;14.17;;;;;10.10;102014.00;;;;10462674;28;20212;-79
2021/12/12 21:06:31;;;;;;;20.37;12.97;;;;;10.10;102018.00;;;;10512951;28;20267;-79
2021/12/12 21:11:39;;;;;;;19.50;13.27;;;;;10.10;102022.00;;;;10511023;28;20277;-78
2021/12/12 21:16:41;;;;;;;20.67;12.87;;;;;10.00;102030.00;;;;10477868;28;20212;-78
2021/12/12 21:21:47;;;;;;;21.33;14.27;;;;;10.00;102031.00;;;;10494038;28;20221;-79
2021/12/12 21:27:09;;;;;;;21.57;13.53;;;;;9.90;102037.00;;;;10487921;28;20246;-79
2021/12/12 21:32:15;;;;;;;20.10;12.93;;;;;9.90;102034.00;;;;10493293;28;20291;-78
2021/12/12 21:37:24;;;;;;;20.00;13.33;;;;;9.80;102031.00;;;;10508811;28;20238;-79
2021/12/12 21:42:51;;;;;;;24.23;14.53;;;;;9.70;102040.00;;;;10492648;28;20208;-78
2021/12/12 21:47:54;;;;;;;24.33;15.40;;;;;9.70;102038.00;;;;10473568;28;20220;-79
2021/12/12 21:53:29;;;;;;;23.23;15.23;;;;;9.80;102035.00;;;;10476683;28;20632;-78
2021/12/12 21:58:38;;;;;;;24.80;14.97;;;;;9.80;102043.00;;;;10491415;28;20193;-78
2021/12/12 22:04:02;;;;;;;23.23;15.47;;;;;9.90;102028.00;;;;10491516;28;20262;-78
2021/12/12 22:09:19;;;;;;;33.07;17.37;;;;;9.90;102044.00;;;;10451745;28;20250;-78
2021/12/12 22:14:40;;;;;;;33.43;18.50;;;;;9.90;102036.00;;;;10491231;28;20230;-79
2021/12/12 22:19:50;;;;;;;30.90;19.20;;;;;9.90;102052.00;;;;10495971;28;20193;-78
2021/12/12 22:25:06;;;;;;;32.33;20.53;;;;;9.90;102035.00;;;;10499130;28;20262;-78
2021/12/12 22:30:19;;;;;;;32.30;20.53;;;;;9.90;102054.00;;;;10509501;28;20197;-78
2021/12/12 22:35:29;;;;;;;32.77;20.87;;;;;9.90;102056.00;;;;10472829;28;20209;-78
2021/12/12 22:40:40;;;;;;;31.80;21.40;;;;;9.90;102049.00;;;;10506208;28;20215;-78
2021/12/12 22:45:48;;;;;;;31.53;20.77;;;;;9.90;102050.00;;;;10501309;28;20640;-78
2021/12/12 22:51:04;;;;;;;31.87;21.37;;;;;9.90;102045.00;;;;10473443;28;20188;-78
2021/12/12 22:56:18;;;;;;;33.23;21.23;;;;;9.90;102045.00;;;;10473066;28;20567;-78
2021/12/12 23:01:34;;;;;;;31.27;21.23;;;;;9.90;102060.00;;;;10519139;28;20216;-78
2021/12/12 23:06:42;;;;;;;37.07;23.93;;;;;9.90;102049.00;;;;10473286;28;20197;-78
2021/12/12 23:11:45;;;;;;;33.57;21.53;;;;;9.80;102050.00;;;;10480197;28;20197;-79
2021/12/12 23:16:52;;;;;;;35.23;23.57;;;;;9.80;102055.00;;;;10457613;28;20703;-78
2021/12/12 23:22:18;;;;;;;34.23;21.73;;;;;9.80;102049.00;;;;10464088;28;20205;-78
2021/12/12 23:32:53;;;;;;;36.57;23.33;;;;;9.70;102053.00;;;;10487057;28;20220;-79
2021/12/12 23:38:04;;;;;;;35.10;22.37;;;;;9.70;102044.00;;;;10522797;28;20201;-78
2021/12/12 23:43:20;;;;;;;34.20;22.20;;;;;9.70;102045.00;;;;10488034;28;20278;-78
2021/12/12 23:48:27;;;;;;;39.73;24.03;;;;;9.70;102050.00;;;;10488025;28;20249;-78
2021/12/12 23:53:34;;;;;;;35.33;23.53;;;;;9.70;102053.00;;;;10521969;28;20193;-78
2021/12/12 23:58:40;;;;;;;37.93;23.90;;;;;9.70;102058.00;;;;10476660;28;20193;-79
